createdAt,value
2017-01-20T00:00:36.875Z,0
2017-01-20T00:01:18.585Z,0
2017-01-20T00:02:00.276Z,0
2017-01-20T00:02:42.019Z,0
2017-01-20T00:03:23.592Z,0
2017-01-20T00:04:05.270Z,0
2017-01-20T00:04:46.963Z,0
2017-01-20T00:05:28.698Z,0
2017-01-20T00:06:10.421Z,0
2017-01-20T00:08:41.614Z,0
2017-01-20T00:11:12.655Z,0
2017-01-20T00:13:44.493Z,0
2017-01-20T00:14:26.094Z,0
2017-01-20T00:16:41.383Z,0
2017-01-20T00:17:23.113Z,0
2017-01-20T00:21:54.150Z,0
2017-01-20T00:26:04.071Z,0
2017-01-20T00:28:40.472Z,0
2017-01-20T00:29:22.169Z,0
2017-01-20T00:31:58.273Z,0
2017-01-20T00:32:39.949Z,0
2017-01-20T00:33:21.627Z,0
2017-01-20T00:34:03.276Z,0
2017-01-20T00:34:44.991Z,0
2017-01-20T00:37:26.736Z,0
2017-01-20T00:38:08.385Z,0
2017-01-20T00:38:50.231Z,0
2017-01-20T00:39:31.896Z,0
2017-01-20T00:41:47.386Z,0
2017-01-20T00:42:29.110Z,0
2017-01-20T00:43:10.833Z,0
2017-01-20T00:43:52.647Z,0
2017-01-20T00:44:34.339Z,0
2017-01-20T00:45:16.073Z,0
2017-01-20T00:45:57.896Z,0
2017-01-20T00:46:39.558Z,0
2017-01-20T00:47:21.283Z,0
2017-01-20T00:48:03.015Z,0
2017-01-20T00:48:44.648Z,0
2017-01-20T00:49:26.338Z,0
2017-01-20T00:51:41.742Z,0
2017-01-20T00:52:23.342Z,0
2017-01-20T00:53:05.027Z,0
2017-01-20T00:53:46.755Z,0
2017-01-20T00:54:28.419Z,0
2017-01-20T00:55:10.168Z,0
2017-01-20T00:55:51.768Z,0
2017-01-20T00:56:33.486Z,0
2017-01-20T00:57:15.161Z,0
2017-01-20T00:57:56.799Z,0
2017-01-20T00:58:38.545Z,0
2017-01-20T00:59:20.259Z,0
2017-01-20T01:01:56.516Z,0
2017-01-20T01:02:38.032Z,0
2017-01-20T01:03:19.704Z,0
2017-01-20T01:04:01.016Z,0
2017-01-20T01:06:21.671Z,0
2017-01-20T01:07:02.961Z,0
2017-01-20T01:07:44.545Z,0
2017-01-20T01:10:15.571Z,0
2017-01-20T01:10:57.247Z,0
2017-01-20T01:11:39.026Z,0
2017-01-20T01:12:20.765Z,0
2017-01-20T01:13:02.087Z,0
2017-01-20T01:13:43.728Z,0
2017-01-20T01:14:25.227Z,0
2017-01-20T01:15:06.955Z,0
2017-01-20T01:15:48.564Z,0
2017-01-20T01:18:03.985Z,0
2017-01-20T01:18:45.719Z,0
2017-01-20T01:19:27.457Z,0
2017-01-20T01:20:09.170Z,0
2017-01-20T01:20:50.906Z,0
2017-01-20T01:21:32.662Z,0
2017-01-20T01:22:14.406Z,0
2017-01-20T01:22:56.153Z,0
2017-01-20T01:23:37.952Z,0
2017-01-20T01:24:19.687Z,0
2017-01-20T01:25:01.441Z,0
2017-01-20T01:25:43.215Z,0
2017-01-20T01:26:24.932Z,0
2017-01-20T01:27:06.326Z,0
2017-01-20T01:27:48.019Z,0
2017-01-20T01:28:29.493Z,0
2017-01-20T01:29:11.203Z,0
2017-01-20T01:29:52.899Z,0
2017-01-20T01:30:34.649Z,0
2017-01-20T01:31:16.394Z,0
2017-01-20T01:31:58.070Z,0
2017-01-20T01:32:39.710Z,0
2017-01-20T01:33:21.282Z,0
2017-01-20T01:35:57.579Z,0
2017-01-20T01:36:39.385Z,0
2017-01-20T01:37:21.052Z,0
2017-01-20T01:38:02.566Z,0
2017-01-20T01:38:44.306Z,0
2017-01-20T01:41:15.448Z,0
2017-01-20T01:41:57.171Z,0
2017-01-20T01:42:38.857Z,0
2017-01-20T01:43:20.630Z,0
2017-01-20T01:44:02.323Z,0
2017-01-20T01:46:38.754Z,0
2017-01-20T01:47:20.370Z,0
2017-01-20T01:49:40.980Z,0
2017-01-20T01:50:22.533Z,0
2017-01-20T01:53:04.264Z,0
2017-01-20T01:53:45.886Z,0
2017-01-20T01:54:27.624Z,0
2017-01-20T01:55:09.306Z,0
2017-01-20T01:55:51.121Z,0
2017-01-20T01:56:32.798Z,0
2017-01-20T01:57:14.370Z,0
2017-01-20T01:57:55.885Z,0
2017-01-20T01:58:37.393Z,0
2017-01-20T01:59:19.145Z,0
2017-01-20T02:00:00.474Z,0
2017-01-20T02:00:40.993Z,0
2017-01-20T02:01:21.535Z,0
2017-01-20T02:02:02.062Z,0
2017-01-20T02:02:42.594Z,0
2017-01-20T02:03:23.119Z,0
2017-01-20T02:04:03.631Z,0
2017-01-20T02:04:44.174Z,0
2017-01-20T02:05:24.702Z,0
2017-01-20T02:06:05.224Z,0
2017-01-20T02:06:45.749Z,0
2017-01-20T02:07:26.305Z,0
2017-01-20T02:08:06.835Z,0
2017-01-20T02:08:47.368Z,0
2017-01-20T02:09:27.894Z,0
2017-01-20T02:10:08.426Z,0
2017-01-20T02:10:48.953Z,0
2017-01-20T02:11:29.479Z,0
2017-01-20T02:12:10.007Z,0
2017-01-20T02:12:50.527Z,0
2017-01-20T02:13:31.055Z,0
2017-01-20T02:14:11.592Z,0
2017-01-20T02:14:52.114Z,0
2017-01-20T02:15:32.644Z,0
2017-01-20T02:16:13.172Z,0
2017-01-20T02:16:53.701Z,0
2017-01-20T02:17:34.231Z,0
2017-01-20T02:18:14.762Z,0
2017-01-20T02:18:55.281Z,0
2017-01-20T02:19:35.809Z,0
2017-01-20T02:20:16.336Z,0
2017-01-20T02:20:56.861Z,0
2017-01-20T02:21:37.380Z,0
2017-01-20T02:22:17.917Z,0
2017-01-20T02:22:58.436Z,0
2017-01-20T02:23:38.966Z,0
2017-01-20T02:24:19.496Z,0
2017-01-20T02:25:00.024Z,0
2017-01-20T02:25:40.549Z,0
2017-01-20T02:26:21.079Z,0
2017-01-20T02:27:01.608Z,0
2017-01-20T02:27:42.131Z,0
2017-01-20T02:28:22.659Z,0
2017-01-20T02:29:03.186Z,0
2017-01-20T02:29:43.721Z,0
2017-01-20T02:30:24.250Z,0
2017-01-20T02:31:04.775Z,0
2017-01-20T02:31:45.303Z,0
2017-01-20T02:32:25.829Z,0
2017-01-20T02:33:06.345Z,0
2017-01-20T02:33:46.875Z,0
2017-01-20T02:34:27.398Z,0
2017-01-20T02:35:07.936Z,0
2017-01-20T02:35:48.471Z,0
2017-01-20T02:36:28.989Z,0
2017-01-20T02:37:09.516Z,0
2017-01-20T02:37:50.051Z,0
2017-01-20T02:38:30.583Z,0
2017-01-20T02:39:11.112Z,0
2017-01-20T02:39:51.627Z,0
2017-01-20T02:40:32.148Z,0
2017-01-20T02:41:12.672Z,0
2017-01-20T02:41:53.198Z,0
2017-01-20T02:42:33.722Z,0
2017-01-20T02:43:14.245Z,0
2017-01-20T02:43:54.782Z,0
2017-01-20T02:44:35.303Z,0
2017-01-20T02:45:15.833Z,0
2017-01-20T02:45:56.369Z,0
2017-01-20T02:46:36.890Z,0
2017-01-20T02:47:17.410Z,0
2017-01-20T02:47:57.935Z,0
2017-01-20T02:48:38.459Z,0
2017-01-20T02:49:18.986Z,0
2017-01-20T02:49:59.516Z,0
2017-01-20T02:50:40.042Z,0
2017-01-20T02:51:20.570Z,0
2017-01-20T02:52:01.099Z,0
2017-01-20T02:52:41.634Z,0
2017-01-20T02:53:22.164Z,0
2017-01-20T02:54:02.693Z,0
2017-01-20T02:54:43.221Z,0
2017-01-20T02:55:23.781Z,0
2017-01-20T02:56:04.302Z,0
2017-01-20T02:56:44.831Z,0
2017-01-20T02:57:25.372Z,0
2017-01-20T02:58:05.898Z,0
2017-01-20T02:58:46.420Z,0
2017-01-20T02:59:26.950Z,0
2017-01-20T03:00:07.484Z,0
2017-01-20T03:00:48.009Z,0
2017-01-20T03:01:28.538Z,0
2017-01-20T03:02:09.069Z,0
2017-01-20T03:02:49.601Z,0
2017-01-20T03:03:30.136Z,0
2017-01-20T03:04:10.663Z,0
2017-01-20T03:04:51.193Z,0
2017-01-20T03:05:31.721Z,0
2017-01-20T03:06:12.250Z,0
2017-01-20T03:06:52.786Z,0
2017-01-20T03:07:33.318Z,0
2017-01-20T03:08:13.834Z,0
2017-01-20T03:08:54.366Z,0
2017-01-20T03:09:34.888Z,0
2017-01-20T03:10:15.423Z,0
2017-01-20T03:10:55.951Z,0
2017-01-20T03:11:36.481Z,0
2017-01-20T03:12:17.009Z,0
2017-01-20T03:12:57.527Z,0
2017-01-20T03:13:38.056Z,0
2017-01-20T03:14:18.584Z,0
2017-01-20T03:14:59.108Z,0
2017-01-20T03:15:39.635Z,0
2017-01-20T03:16:20.156Z,0
2017-01-20T03:17:00.681Z,0
2017-01-20T03:17:41.210Z,0
2017-01-20T03:18:21.743Z,0
2017-01-20T03:19:02.272Z,0
2017-01-20T03:19:42.799Z,0
2017-01-20T03:20:23.336Z,0
2017-01-20T03:21:03.866Z,0
2017-01-20T03:21:44.401Z,0
2017-01-20T03:22:24.932Z,0
2017-01-20T03:23:05.457Z,0
2017-01-20T03:23:45.982Z,0
2017-01-20T03:24:26.503Z,0
2017-01-20T03:25:07.031Z,0
2017-01-20T03:25:47.556Z,0
2017-01-20T03:26:28.084Z,0
2017-01-20T03:27:08.613Z,0
2017-01-20T03:27:49.127Z,0
2017-01-20T03:28:29.641Z,0
2017-01-20T03:29:10.175Z,0
2017-01-20T03:29:50.710Z,0
2017-01-20T03:30:31.253Z,0
2017-01-20T03:31:11.771Z,0
2017-01-20T03:31:52.299Z,0
2017-01-20T03:32:32.829Z,0
2017-01-20T03:33:13.356Z,0
2017-01-20T03:33:53.880Z,0
2017-01-20T03:34:34.402Z,0
2017-01-20T03:35:14.927Z,0
2017-01-20T03:35:55.464Z,0
2017-01-20T03:36:35.996Z,0
2017-01-20T03:37:16.518Z,0
2017-01-20T03:37:57.044Z,0
2017-01-20T03:38:37.579Z,0
2017-01-20T03:39:18.110Z,0
2017-01-20T03:39:58.651Z,0
2017-01-20T03:40:39.163Z,0
2017-01-20T03:41:19.691Z,0
2017-01-20T03:42:00.220Z,0
2017-01-20T03:42:40.743Z,0
2017-01-20T03:43:21.261Z,0
2017-01-20T03:44:01.798Z,0
2017-01-20T03:44:42.333Z,0
2017-01-20T03:45:22.865Z,0
2017-01-20T03:46:03.395Z,0
2017-01-20T03:46:43.916Z,0
2017-01-20T03:47:24.458Z,0
2017-01-20T03:48:04.985Z,0
2017-01-20T03:48:45.505Z,0
2017-01-20T03:49:26.040Z,0
2017-01-20T03:50:06.568Z,0
2017-01-20T03:50:47.094Z,0
2017-01-20T03:51:27.621Z,0
2017-01-20T03:52:08.147Z,0
2017-01-20T03:52:48.671Z,0
2017-01-20T03:53:29.198Z,0
2017-01-20T03:54:09.727Z,0
2017-01-20T03:54:50.249Z,0
2017-01-20T03:55:30.770Z,0
2017-01-20T03:56:11.295Z,0
2017-01-20T03:56:51.819Z,0
2017-01-20T03:57:32.375Z,0
2017-01-20T03:58:12.902Z,0
2017-01-20T03:58:53.425Z,0
2017-01-20T03:59:33.954Z,0
2017-01-20T04:00:14.482Z,0
2017-01-20T04:00:55.011Z,0
2017-01-20T04:01:35.534Z,0
2017-01-20T04:02:16.058Z,0
2017-01-20T04:02:56.585Z,0
2017-01-20T04:03:37.116Z,0
2017-01-20T04:04:17.645Z,0
2017-01-20T04:04:58.181Z,0
2017-01-20T04:05:38.701Z,0
2017-01-20T04:06:19.240Z,0
2017-01-20T04:06:59.771Z,0
2017-01-20T04:07:40.306Z,0
2017-01-20T04:08:20.833Z,0
2017-01-20T04:09:01.362Z,0
2017-01-20T04:09:41.908Z,0
2017-01-20T04:10:22.442Z,0
2017-01-20T04:11:02.968Z,0
2017-01-20T04:11:43.516Z,0
2017-01-20T04:12:24.034Z,0
2017-01-20T04:13:04.564Z,0
2017-01-20T04:13:45.100Z,0
2017-01-20T04:14:25.620Z,0
2017-01-20T04:15:06.157Z,0
2017-01-20T04:15:46.683Z,0
2017-01-20T04:16:27.215Z,0
2017-01-20T04:17:07.755Z,0
2017-01-20T04:17:48.284Z,0
2017-01-20T04:18:28.810Z,0
2017-01-20T04:19:09.331Z,0
2017-01-20T04:19:49.855Z,0
2017-01-20T04:20:30.394Z,0
2017-01-20T04:21:10.911Z,0
2017-01-20T04:21:51.437Z,0
2017-01-20T04:22:31.965Z,0
2017-01-20T04:23:12.489Z,0
2017-01-20T04:23:53.024Z,0
2017-01-20T04:24:33.549Z,0
2017-01-20T04:25:14.077Z,0
2017-01-20T04:25:54.602Z,0
2017-01-20T04:26:35.126Z,0
2017-01-20T04:27:15.649Z,0
2017-01-20T04:27:56.180Z,0
2017-01-20T04:28:36.710Z,0
2017-01-20T04:29:17.236Z,0
2017-01-20T04:29:57.756Z,0
2017-01-20T04:30:38.284Z,0
2017-01-20T04:31:18.846Z,0
2017-01-20T04:31:59.373Z,0
2017-01-20T04:32:39.907Z,0
2017-01-20T04:33:20.436Z,0
2017-01-20T04:34:00.966Z,0
2017-01-20T04:34:41.492Z,0
2017-01-20T04:35:22.009Z,0
2017-01-20T04:36:02.559Z,0
2017-01-20T04:36:43.089Z,0
2017-01-20T04:37:23.616Z,0
2017-01-20T04:38:04.143Z,0
2017-01-20T04:38:44.673Z,0
2017-01-20T04:39:25.211Z,0
2017-01-20T04:40:05.744Z,0
2017-01-20T04:40:46.277Z,0
2017-01-20T04:41:26.799Z,0
2017-01-20T04:42:07.326Z,0
2017-01-20T04:42:47.854Z,0
2017-01-20T04:43:28.415Z,0
2017-01-20T04:44:08.945Z,0
2017-01-20T04:44:49.480Z,0
2017-01-20T04:45:30.000Z,0
2017-01-20T04:46:10.531Z,0
2017-01-20T04:46:51.065Z,0
2017-01-20T04:47:31.601Z,0
2017-01-20T04:48:12.118Z,0
2017-01-20T04:48:52.649Z,0
2017-01-20T04:49:33.185Z,0
2017-01-20T04:50:13.718Z,0
2017-01-20T04:50:54.253Z,0
2017-01-20T04:51:34.804Z,0
2017-01-20T04:52:15.336Z,0
2017-01-20T04:52:55.855Z,0
2017-01-20T04:53:36.384Z,0
2017-01-20T04:54:16.920Z,0
2017-01-20T04:54:57.442Z,0
2017-01-20T04:55:37.973Z,0
2017-01-20T04:56:18.505Z,0
2017-01-20T04:56:59.032Z,0
2017-01-20T04:57:39.564Z,0
2017-01-20T04:58:20.103Z,0
2017-01-20T04:59:00.634Z,0
2017-01-20T04:59:41.158Z,0
2017-01-20T05:00:21.745Z,0
2017-01-20T05:01:02.292Z,0
2017-01-20T05:01:42.815Z,0
2017-01-20T05:02:23.342Z,0
2017-01-20T05:03:03.864Z,0
2017-01-20T05:03:44.397Z,0
2017-01-20T05:04:24.923Z,0
2017-01-20T05:05:05.448Z,0
2017-01-20T05:05:45.981Z,0
2017-01-20T05:06:26.525Z,0
2017-01-20T05:07:07.041Z,0
2017-01-20T05:07:47.568Z,0
2017-01-20T05:08:28.096Z,0
2017-01-20T05:09:08.631Z,0
2017-01-20T05:09:49.151Z,0
2017-01-20T05:10:29.685Z,0
2017-01-20T05:11:10.215Z,0
2017-01-20T05:11:50.745Z,0
2017-01-20T05:12:31.351Z,0
2017-01-20T05:13:11.868Z,0
2017-01-20T05:13:52.407Z,0
2017-01-20T05:14:33.005Z,0
2017-01-20T05:15:13.566Z,0
2017-01-20T05:15:54.108Z,0
2017-01-20T05:16:34.643Z,0
2017-01-20T05:17:15.169Z,0
2017-01-20T05:17:55.705Z,0
2017-01-20T05:18:36.240Z,0
2017-01-20T05:19:16.777Z,0
2017-01-20T05:19:57.309Z,0
2017-01-20T05:20:37.828Z,0
2017-01-20T05:21:18.360Z,0
2017-01-20T05:21:58.900Z,0
2017-01-20T05:22:39.423Z,0
2017-01-20T05:23:19.960Z,0
2017-01-20T05:24:00.492Z,0
2017-01-20T05:24:41.025Z,0
2017-01-20T05:25:21.542Z,0
2017-01-20T05:26:02.095Z,0
2017-01-20T05:26:42.635Z,0
2017-01-20T05:27:23.167Z,0
2017-01-20T05:28:03.706Z,0
2017-01-20T05:28:44.288Z,0
2017-01-20T05:29:24.828Z,0
2017-01-20T05:30:05.367Z,0
2017-01-20T05:30:46.040Z,0
2017-01-20T05:31:26.660Z,0
2017-01-20T05:32:07.371Z,0
2017-01-20T05:32:48.095Z,0
2017-01-20T05:35:17.504Z,0
2017-01-20T05:35:58.061Z,0
2017-01-20T05:36:38.676Z,0
2017-01-20T05:37:19.317Z,0
2017-01-20T05:38:00.115Z,0
2017-01-20T05:38:40.851Z,0
2017-01-20T05:39:21.464Z,0
2017-01-20T05:40:02.016Z,0
2017-01-20T05:40:42.562Z,0
2017-01-20T05:41:23.127Z,0
2017-01-20T05:42:03.764Z,0
2017-01-20T05:42:44.336Z,0
2017-01-20T05:43:24.987Z,0
2017-01-20T05:44:05.585Z,0
2017-01-20T05:44:46.230Z,0
2017-01-20T05:45:26.841Z,0
2017-01-20T05:46:07.348Z,0
2017-01-20T05:46:47.909Z,0
2017-01-20T05:47:28.410Z,0
2017-01-20T05:48:08.937Z,0
2017-01-20T05:48:49.451Z,0
2017-01-20T05:49:30.058Z,0
2017-01-20T05:50:10.595Z,0
2017-01-20T05:50:51.128Z,0
2017-01-20T05:51:31.689Z,0
2017-01-20T05:52:12.257Z,0
2017-01-20T05:52:52.827Z,0
2017-01-20T05:53:33.458Z,0
2017-01-20T05:54:14.056Z,0
2017-01-20T05:54:54.641Z,0
2017-01-20T05:55:35.216Z,0
2017-01-20T05:56:15.760Z,0
2017-01-20T05:56:56.276Z,0
2017-01-20T05:57:36.781Z,0
2017-01-20T05:58:17.286Z,0
2017-01-20T05:58:57.796Z,0
2017-01-20T05:59:38.319Z,0
2017-01-20T06:00:18.839Z,0
2017-01-20T06:00:59.363Z,0
2017-01-20T06:01:39.896Z,0
2017-01-20T06:02:20.427Z,0
2017-01-20T06:03:00.965Z,0
2017-01-20T06:03:41.481Z,0
2017-01-20T06:04:22.017Z,0
2017-01-20T06:05:02.528Z,0
2017-01-20T06:05:43.056Z,0
2017-01-20T06:06:23.582Z,0
2017-01-20T06:07:04.119Z,0
2017-01-20T06:07:44.649Z,0
2017-01-20T06:08:25.172Z,0
2017-01-20T06:09:05.708Z,0
2017-01-20T06:09:46.235Z,0
2017-01-20T06:10:26.764Z,0
2017-01-20T06:11:07.293Z,0
2017-01-20T06:11:47.819Z,0
2017-01-20T06:12:28.351Z,0
2017-01-20T06:13:08.885Z,0
2017-01-20T06:13:49.418Z,0
2017-01-20T06:14:29.975Z,0
2017-01-20T06:15:10.508Z,0
2017-01-20T06:15:51.038Z,0
2017-01-20T06:16:31.561Z,0
2017-01-20T06:17:12.079Z,0
2017-01-20T06:17:52.607Z,0
2017-01-20T06:18:33.139Z,0
2017-01-20T06:19:13.670Z,0
2017-01-20T06:19:54.194Z,0
2017-01-20T06:20:34.721Z,0
2017-01-20T06:21:15.265Z,0
2017-01-20T06:21:55.781Z,0
2017-01-20T06:22:36.312Z,0
2017-01-20T06:23:16.844Z,0
2017-01-20T06:23:57.376Z,0
2017-01-20T06:24:37.908Z,0
2017-01-20T06:25:18.439Z,0
2017-01-20T06:25:58.961Z,0
2017-01-20T06:26:39.496Z,0
2017-01-20T06:27:20.029Z,0
2017-01-20T06:28:00.580Z,0
2017-01-20T06:28:41.110Z,0
2017-01-20T06:29:21.634Z,0
2017-01-20T06:30:02.164Z,0
2017-01-20T06:30:42.701Z,0
2017-01-20T06:31:23.238Z,0
2017-01-20T06:32:03.764Z,0
2017-01-20T06:32:44.292Z,0
2017-01-20T06:33:24.819Z,0
2017-01-20T06:34:05.350Z,0
2017-01-20T06:34:45.884Z,0
2017-01-20T06:35:26.415Z,0
2017-01-20T06:36:06.938Z,0
2017-01-20T06:36:47.456Z,0
2017-01-20T06:37:27.987Z,0
2017-01-20T06:38:08.522Z,0
2017-01-20T06:38:49.053Z,0
2017-01-20T06:39:29.576Z,0
2017-01-20T06:40:10.106Z,0
2017-01-20T06:42:39.591Z,0
2017-01-20T06:43:20.122Z,0
2017-01-20T06:44:00.651Z,0
2017-01-20T06:44:41.183Z,0
2017-01-20T06:45:21.704Z,0
2017-01-20T06:46:02.325Z,0
2017-01-20T06:46:42.849Z,0
2017-01-20T06:47:23.365Z,0
2017-01-20T06:48:03.896Z,0
2017-01-20T06:48:44.431Z,0
2017-01-20T06:49:24.945Z,0
2017-01-20T06:50:05.471Z,0
2017-01-20T06:50:46.002Z,0
2017-01-20T06:51:26.523Z,0
2017-01-20T06:52:07.046Z,0
2017-01-20T06:52:47.565Z,0
2017-01-20T06:53:28.100Z,0
2017-01-20T06:54:08.623Z,0
2017-01-20T06:54:49.144Z,0
2017-01-20T06:55:29.661Z,0
2017-01-20T06:56:10.190Z,0
2017-01-20T06:56:50.709Z,0
2017-01-20T06:57:31.250Z,0
2017-01-20T06:58:12.829Z,0
2017-01-20T06:58:53.353Z,0
2017-01-20T06:59:33.890Z,0
2017-01-20T07:00:14.424Z,0
2017-01-20T07:00:54.958Z,0
2017-01-20T07:01:35.475Z,0
2017-01-20T07:02:15.983Z,0
2017-01-20T07:02:56.517Z,0
2017-01-20T07:03:37.048Z,0
2017-01-20T07:04:17.575Z,0
2017-01-20T07:04:58.096Z,0
2017-01-20T07:05:38.638Z,0
2017-01-20T07:06:19.176Z,0
2017-01-20T07:06:59.773Z,0
2017-01-20T07:07:40.306Z,0
2017-01-20T07:08:20.835Z,0
2017-01-20T07:09:01.364Z,0
2017-01-20T07:09:41.895Z,0
2017-01-20T07:10:22.425Z,0
2017-01-20T07:11:02.954Z,0
2017-01-20T07:11:43.524Z,0
2017-01-20T07:12:24.044Z,0
2017-01-20T07:13:04.581Z,0
2017-01-20T07:13:45.118Z,0
2017-01-20T07:14:25.639Z,0
2017-01-20T07:15:06.174Z,0
2017-01-20T07:15:46.700Z,0
2017-01-20T07:16:27.221Z,0
2017-01-20T07:17:07.871Z,0
2017-01-20T07:17:49.554Z,0
2017-01-20T07:18:30.122Z,5
2017-01-20T07:19:10.652Z,5
2017-01-20T07:19:51.174Z,5
2017-01-20T07:20:31.700Z,5
2017-01-20T07:21:13.964Z,5
2017-01-20T07:21:54.484Z,5
2017-01-20T07:22:35.000Z,5
2017-01-20T07:23:15.523Z,5
2017-01-20T07:23:56.051Z,5
2017-01-20T07:24:36.581Z,5
2017-01-20T07:25:17.134Z,5
2017-01-20T07:25:57.655Z,5
2017-01-20T07:26:38.186Z,5
2017-01-20T07:27:18.721Z,5
2017-01-20T07:27:59.248Z,5
2017-01-20T07:28:39.777Z,10
2017-01-20T07:29:20.304Z,10
2017-01-20T07:30:00.826Z,10
2017-01-20T07:30:41.364Z,10
2017-01-20T07:31:21.901Z,10
2017-01-20T07:32:02.420Z,10
2017-01-20T07:32:42.946Z,10
2017-01-20T07:33:23.494Z,10
2017-01-20T07:34:04.019Z,10
2017-01-20T07:34:44.549Z,10
2017-01-20T07:35:25.131Z,10
2017-01-20T07:36:05.670Z,10
2017-01-20T07:36:46.203Z,15
2017-01-20T07:37:26.733Z,15
2017-01-20T07:38:07.262Z,15
2017-01-20T07:38:47.779Z,15
2017-01-20T07:39:28.325Z,15
2017-01-20T07:40:08.855Z,15
2017-01-20T07:40:49.373Z,15
2017-01-20T07:41:29.893Z,15
2017-01-20T07:42:10.423Z,15
2017-01-20T07:42:50.946Z,15
2017-01-20T07:43:31.479Z,20
2017-01-20T07:44:12.006Z,20
2017-01-20T07:44:52.529Z,20
2017-01-20T07:45:33.065Z,20
2017-01-20T07:46:13.584Z,20
2017-01-20T07:46:54.121Z,20
2017-01-20T07:47:34.651Z,20
2017-01-20T07:48:15.182Z,20
2017-01-20T07:48:55.710Z,20
2017-01-20T07:49:36.230Z,20
2017-01-20T07:50:16.760Z,25
2017-01-20T07:50:57.285Z,25
2017-01-20T07:51:37.827Z,25
2017-01-20T07:52:18.355Z,25
2017-01-20T07:52:58.880Z,25
2017-01-20T07:53:39.409Z,25
2017-01-20T07:54:19.924Z,25
2017-01-20T07:55:00.454Z,25
2017-01-20T07:55:40.969Z,25
2017-01-20T07:56:21.485Z,30
2017-01-20T07:57:02.012Z,30
2017-01-20T07:57:42.531Z,30
2017-01-20T07:58:23.058Z,30
2017-01-20T07:59:03.595Z,30
2017-01-20T07:59:44.130Z,30
2017-01-20T08:00:24.664Z,30
2017-01-20T08:01:05.180Z,30
2017-01-20T08:01:45.710Z,30
2017-01-20T08:02:26.247Z,35
2017-01-20T08:03:06.781Z,35
2017-01-20T08:03:47.314Z,35
2017-01-20T08:04:27.835Z,35
2017-01-20T08:05:08.364Z,35
2017-01-20T08:05:48.899Z,35
2017-01-20T08:06:29.440Z,35
2017-01-20T08:07:09.981Z,35
2017-01-20T08:07:50.511Z,35
2017-01-20T08:08:31.038Z,35
2017-01-20T08:09:11.567Z,40
2017-01-20T08:09:52.192Z,40
2017-01-20T08:10:32.725Z,40
2017-01-20T08:11:13.280Z,40
2017-01-20T08:11:53.785Z,40
2017-01-20T08:12:34.314Z,45
2017-01-20T08:13:14.842Z,45
2017-01-20T08:13:55.362Z,45
2017-01-20T08:14:35.891Z,45
2017-01-20T08:15:16.413Z,45
2017-01-20T08:15:56.944Z,50
2017-01-20T08:16:37.475Z,50
2017-01-20T08:17:17.991Z,50
2017-01-20T08:17:58.520Z,50
2017-01-20T08:18:39.044Z,50
2017-01-20T08:19:19.578Z,50
2017-01-20T08:20:00.105Z,50
2017-01-20T08:20:40.624Z,50
2017-01-20T08:21:21.156Z,50
2017-01-20T08:22:01.679Z,50
2017-01-20T08:22:42.223Z,50
2017-01-20T08:23:22.841Z,50
2017-01-20T08:24:03.347Z,50
2017-01-20T08:24:43.877Z,50
2017-01-20T08:25:24.399Z,50
2017-01-20T08:26:04.917Z,50
2017-01-20T08:26:45.448Z,50
2017-01-20T08:27:25.986Z,55
2017-01-20T08:28:06.506Z,55
2017-01-20T08:28:47.037Z,55
2017-01-20T08:29:27.561Z,55
2017-01-20T08:30:08.088Z,55
2017-01-20T08:30:48.616Z,55
2017-01-20T08:31:29.146Z,55
2017-01-20T08:32:09.669Z,55
2017-01-20T08:32:50.189Z,55
2017-01-20T08:33:30.729Z,55
2017-01-20T08:34:11.242Z,55
2017-01-20T08:34:51.765Z,60
2017-01-20T08:35:32.295Z,60
2017-01-20T08:36:12.829Z,60
2017-01-20T08:36:53.348Z,60
2017-01-20T08:37:33.877Z,60
2017-01-20T08:38:14.403Z,65
2017-01-20T08:38:54.930Z,65
2017-01-20T08:39:35.446Z,65
2017-01-20T08:40:15.970Z,65
2017-01-20T08:40:56.499Z,65
2017-01-20T08:41:37.032Z,70
2017-01-20T08:42:17.546Z,70
2017-01-20T08:42:58.078Z,70
2017-01-20T08:43:38.614Z,75
2017-01-20T08:44:19.148Z,75
2017-01-20T08:44:59.673Z,75
2017-01-20T08:45:40.200Z,75
2017-01-20T08:46:20.738Z,75
2017-01-20T08:47:01.257Z,75
2017-01-20T08:47:41.787Z,75
2017-01-20T08:48:22.324Z,75
2017-01-20T08:49:02.852Z,75
2017-01-20T08:49:43.376Z,75
2017-01-20T08:50:23.890Z,75
2017-01-20T08:51:04.419Z,70
2017-01-20T08:51:44.949Z,70
2017-01-20T08:52:25.475Z,70
2017-01-20T08:53:06.005Z,70
2017-01-20T08:53:46.535Z,70
2017-01-20T08:54:27.066Z,70
2017-01-20T08:55:07.595Z,75
2017-01-20T08:55:48.121Z,75
2017-01-20T08:56:28.650Z,80
2017-01-20T08:57:09.180Z,80
2017-01-20T08:57:49.700Z,80
2017-01-20T08:58:30.219Z,85
2017-01-20T08:59:10.759Z,85
2017-01-20T08:59:51.288Z,85
2017-01-20T09:00:31.820Z,90
2017-01-20T09:01:12.348Z,95
2017-01-20T09:01:52.880Z,110
2017-01-20T09:02:33.411Z,140
2017-01-20T09:03:13.943Z,175
2017-01-20T09:03:54.469Z,195
2017-01-20T09:04:34.989Z,200
2017-01-20T09:05:15.526Z,195
2017-01-20T09:05:56.053Z,200
2017-01-20T09:06:36.586Z,200
2017-01-20T09:07:17.112Z,205
2017-01-20T09:07:57.651Z,240
2017-01-20T09:08:38.181Z,305
2017-01-20T09:09:18.710Z,330
2017-01-20T09:09:59.237Z,305
2017-01-20T09:10:39.765Z,245
2017-01-20T09:11:20.293Z,215
2017-01-20T09:12:00.828Z,220
2017-01-20T09:12:41.367Z,235
2017-01-20T09:13:21.895Z,285
2017-01-20T09:14:02.421Z,310
2017-01-20T09:14:42.957Z,340
2017-01-20T09:15:23.488Z,380
2017-01-20T09:16:04.020Z,420
2017-01-20T09:16:44.551Z,435
2017-01-20T09:17:25.082Z,430
2017-01-20T09:18:05.606Z,430
2017-01-20T09:18:46.136Z,495
2017-01-20T09:19:26.681Z,525
2017-01-20T09:20:07.222Z,515
2017-01-20T09:20:47.761Z,495
2017-01-20T09:21:28.295Z,570
2017-01-20T09:22:08.824Z,620
2017-01-20T09:22:49.351Z,610
2017-01-20T09:23:29.879Z,605
2017-01-20T09:24:10.404Z,595
2017-01-20T09:24:50.928Z,575
2017-01-20T09:25:31.458Z,580
2017-01-20T09:26:11.996Z,530
2017-01-20T09:26:52.525Z,470
2017-01-20T09:27:33.055Z,470
2017-01-20T09:28:13.589Z,500
2017-01-20T09:28:54.122Z,470
2017-01-20T09:29:34.661Z,405
2017-01-20T09:30:15.193Z,350
2017-01-20T09:30:55.727Z,320
2017-01-20T09:31:36.258Z,295
2017-01-20T09:32:16.797Z,270
2017-01-20T09:32:57.325Z,265
2017-01-20T09:33:37.868Z,250
2017-01-20T09:34:18.401Z,235
2017-01-20T09:34:58.943Z,230
2017-01-20T09:35:39.480Z,230
2017-01-20T09:36:20.018Z,225
2017-01-20T09:37:00.552Z,220
2017-01-20T09:37:41.088Z,220
2017-01-20T09:38:21.623Z,215
2017-01-20T09:39:02.154Z,210
2017-01-20T09:39:42.686Z,210
2017-01-20T09:40:23.224Z,210
2017-01-20T09:41:03.764Z,215
2017-01-20T09:41:44.295Z,220
2017-01-20T09:42:24.829Z,225
2017-01-20T09:43:05.365Z,235
2017-01-20T09:43:45.901Z,245
2017-01-20T09:44:26.470Z,260
2017-01-20T09:45:07.003Z,270
2017-01-20T09:45:47.580Z,290
2017-01-20T09:46:28.105Z,310
2017-01-20T09:47:08.643Z,335
2017-01-20T09:47:49.172Z,365
2017-01-20T09:48:29.713Z,420
2017-01-20T09:49:10.245Z,505
2017-01-20T09:49:50.778Z,590
2017-01-20T09:50:31.313Z,680
2017-01-20T09:51:11.847Z,760
2017-01-20T09:51:52.388Z,835
2017-01-20T09:52:32.928Z,910
2017-01-20T09:53:13.465Z,960
2017-01-20T09:53:53.997Z,995
2017-01-20T09:54:34.533Z,1040
2017-01-20T09:55:15.065Z,1065
2017-01-20T09:55:55.600Z,1090
2017-01-20T09:56:36.139Z,1110
2017-01-20T09:57:16.679Z,1105
2017-01-20T09:57:57.280Z,1095
2017-01-20T09:58:37.837Z,1100
2017-01-20T09:59:18.366Z,1130
2017-01-20T09:59:58.905Z,1170
2017-01-20T10:00:39.440Z,1155
2017-01-20T10:01:19.984Z,1160
2017-01-20T10:02:00.520Z,1165
2017-01-20T10:02:41.053Z,1175
2017-01-20T10:03:21.592Z,1155
2017-01-20T10:04:02.129Z,1145
2017-01-20T10:04:42.671Z,1160
2017-01-20T10:05:23.239Z,1175
2017-01-20T10:06:03.783Z,1165
2017-01-20T10:06:44.325Z,1195
2017-01-20T10:07:24.853Z,1210
2017-01-20T10:08:05.395Z,1230
2017-01-20T10:08:45.920Z,1230
2017-01-20T10:09:26.453Z,1235
2017-01-20T10:10:06.970Z,1245
2017-01-20T10:10:47.511Z,1255
2017-01-20T10:11:28.044Z,1260
2017-01-20T10:12:08.574Z,1270
2017-01-20T10:12:49.112Z,1295
2017-01-20T10:13:29.645Z,1300
2017-01-20T10:14:10.180Z,1300
2017-01-20T10:14:50.703Z,1290
2017-01-20T10:15:31.249Z,1245
2017-01-20T10:16:11.797Z,1235
2017-01-20T10:16:52.330Z,1265
2017-01-20T10:17:32.858Z,1325
2017-01-20T10:18:13.386Z,1335
2017-01-20T10:18:53.934Z,1340
2017-01-20T10:19:34.454Z,1330
2017-01-20T10:20:15.044Z,1315
2017-01-20T10:20:55.586Z,1300
2017-01-20T10:21:36.121Z,1290
2017-01-20T10:22:16.655Z,1190
2017-01-20T10:22:57.203Z,1260
2017-01-20T10:23:37.736Z,1270
2017-01-20T10:24:18.270Z,1275
2017-01-20T10:24:58.807Z,1275
2017-01-20T10:25:39.358Z,1270
2017-01-20T10:26:19.892Z,1250
2017-01-20T10:27:00.428Z,1235
2017-01-20T10:27:41.015Z,1245
2017-01-20T10:28:21.554Z,1255
2017-01-20T10:29:02.095Z,1275
2017-01-20T10:29:42.632Z,1315
2017-01-20T10:30:23.172Z,1330
2017-01-20T10:31:03.710Z,1345
2017-01-20T10:31:44.231Z,1325
2017-01-20T10:32:24.756Z,1330
2017-01-20T10:33:05.296Z,1340